If you wish to contribute or participate in the discussions about articles you are invited to join SKYbrary as a registered user

 Actions

Bergerac-Roumanière Airport

From SKYbrary Wiki

LFBE
Airport
ICAO: LFBE – IATA: EGC
Summary
Name Bergerac-Roumanière Airport
Region Europe
Territory France FR.gif
Location , Aquitaine
Serving Bergerac
Elevation 52.121 m
171 ft
171 ft52.121 m
Type medium airport
Coordinates 44° 49' 31.00" N, 0° 31' 7.00" E
Runways
Designator Length Width Surface ROPS
10/28 2205 m7,234.252 ft
45 m147.638 ft
ASP yes/yes


METAR
Observation LFBE 221600Z AUTO VRB02KT CAVOK 21/03 Q1026 NOSIG
Station Bergerac
Date/Time 22 March 2019 16:00:00
Wind direction °
Wind speed 02 kts
Lowest cloud amount clouds and visibility OK
Temperature 21°C
Dew point 3°C
Humidity 30%
QNH 1026 hPa
Weather condition n/a